Time;durP1;ratioP1;P1;durP2;ratioP2;P2;SDS_P1;SDS_P2;PMS_P1;PMS_P2;Temp;Humidity;BMP_temperature;BMP_pressure;BME280_temperature;BME280_humidity;BME280_pressure;Samples;Min_cycle;Max_cycle;Signal;HPM_P1;HPM_P2
2022/07/29 00:02:09;;;;;;;9.07;5.53;;;;;;;20.92;88.17;97864.38;5012437;28;20036;-73
2022/07/29 00:04:36;;;;;;;10.25;6.25;;;;;;;20.77;88.78;97866.03;5011817;28;20048;-74
2022/07/29 00:07:02;;;;;;;7.88;5.97;;;;;;;20.69;89.97;97869.84;5012086;28;20037;-73
2022/07/29 00:09:27;;;;;;;9.25;6.38;;;;;;;20.61;90.67;97866.09;5011625;28;20383;-73
2022/07/29 00:11:56;;;;;;;8.32;5.93;;;;;;;20.50;92.18;97875.34;5011721;28;20033;-72
2022/07/29 00:14:22;;;;;;;9.30;6.05;;;;;;;20.47;92.68;97865.78;5011678;28;20034;-73
2022/07/29 00:16:47;;;;;;;8.60;6.28;;;;;;;20.46;92.83;97869.72;5011844;28;20041;-73
2022/07/29 00:19:13;;;;;;;8.00;5.90;;;;;;;20.41;93.42;97867.22;4994017;28;20026;-73
2022/07/29 00:21:38;;;;;;;12.63;6.32;;;;;;;20.35;94.22;97867.88;5011732;28;20435;-73
2022/07/29 00:24:04;;;;;;;8.40;5.88;;;;;;;20.35;94.24;97873.41;5011619;28;20087;-74
2022/07/29 00:26:31;;;;;;;8.63;6.40;;;;;;;20.30;94.40;97871.72;5011427;28;20080;-73
2022/07/29 00:28:58;;;;;;;9.73;6.43;;;;;;;20.37;94.47;97865.53;5011651;28;20037;-73
2022/07/29 00:31:24;;;;;;;9.00;7.22;;;;;;;20.30;94.35;97858.63;5011425;28;20100;-73
2022/07/29 00:33:49;;;;;;;9.10;6.75;;;;;;;20.56;92.93;97865.56;5011424;28;20479;-73
2022/07/29 00:36:14;;;;;;;10.52;6.43;;;;;;;20.61;91.93;97856.97;5011636;28;20026;-72
2022/07/29 00:38:44;;;;;;;9.85;6.70;;;;;;;20.54;92.04;97871.50;4971623;28;1149067;-73
2022/07/29 00:41:09;;;;;;;10.57;7.10;;;;;;;20.47;93.13;97864.97;4994832;28;20437;-73
2022/07/29 00:43:34;;;;;;;10.35;6.60;;;;;;;20.25;94.80;97858.88;5012317;28;20045;-73
2022/07/29 00:46:00;;;;;;;8.88;7.25;;;;;;;20.16;95.75;97861.06;5012304;28;20108;-72
2022/07/29 00:48:25;;;;;;;9.93;6.55;;;;;;;20.29;95.25;97859.00;4994522;28;20068;-73
2022/07/29 00:50:51;;;;;;;14.30;6.72;;;;;;;20.26;95.67;97854.97;5012268;28;20037;-74
2022/07/29 00:53:16;;;;;;;9.35;6.70;;;;;;;20.26;95.40;97851.41;5012075;28;20095;-73
2022/07/29 00:55:42;;;;;;;10.13;7.18;;;;;;;20.25;95.60;97858.88;5012155;28;20034;-73
2022/07/29 00:58:08;;;;;;;10.18;6.65;;;;;;;20.22;95.95;97848.50;4994283;28;20552;-73
2022/07/29 01:00:33;;;;;;;7.68;6.38;;;;;;;20.33;94.74;97843.19;5012025;28;20021;-73
2022/07/29 01:02:59;;;;;;;10.32;6.25;;;;;;;20.37;94.70;97852.44;5012003;28;20026;-73
2022/07/29 01:05:27;;;;;;;7.63;6.63;;;;;;;20.29;94.74;97848.69;5012004;28;20048;-73
2022/07/29 01:07:57;;;;;;;10.45;6.95;;;;;;;20.22;96.00;97854.06;5011942;28;20030;-74
2022/07/29 01:10:23;;;;;;;7.97;6.32;;;;;;;20.19;96.85;97849.22;5011320;28;20030;-72
2022/07/29 01:12:51;;;;;;;10.82;7.03;;;;;;;20.09;99.26;97849.75;5011513;28;20034;-72
2022/07/29 01:15:16;;;;;;;9.93;6.78;;;;;;;20.07;100.00;97852.09;5011608;28;20040;-73
2022/07/29 01:18:23;;;;;;;9.18;7.53;;;;;;;20.03;100.00;97840.09;5011843;28;20033;-73
2022/07/29 01:21:40;;;;;;;13.93;7.22;;;;;;;20.05;100.00;97840.53;4932069;29;20039;-73
2022/07/29 01:24:20;;;;;;;9.65;7.10;;;;;;;20.09;99.68;97835.88;4957410;28;20073;-73
2022/07/29 01:26:52;;;;;;;8.50;6.70;;;;;;;20.09;99.75;97843.41;4993829;28;20100;-73
2022/07/29 01:29:17;;;;;;;9.20;7.05;;;;;;;20.04;100.00;97830.59;5011649;28;20026;-73
2022/07/29 01:31:56;;;;;;;11.35;6.70;;;;;;;20.00;100.00;97826.13;5011615;28;20079;-73
2022/07/29 01:34:29;;;;;;;13.95;6.90;;;;;;;19.94;100.00;97820.03;5011386;28;20041;-72
2022/07/29 01:37:06;;;;;;;12.43;7.53;;;;;;;19.78;100.00;97819.25;5011281;28;20025;-73
2022/07/29 01:39:35;;;;;;;8.43;6.95;;;;;;;19.69;100.00;97818.63;5011124;28;20053;-73
2022/07/29 01:42:31;;;;;;;9.88;7.30;;;;;;;19.64;100.00;97816.91;5011180;28;20026;-73
2022/07/29 01:45:02;;;;;;;10.15;7.22;;;;;;;19.71;100.00;97821.81;5012515;28;20076;-73
2022/07/29 01:47:37;;;;;;;10.52;6.57;;;;;;;19.78;100.00;97822.81;5014199;28;20394;-73
2022/07/29 01:50:07;;;;;;;8.80;7.13;;;;;;;19.71;100.00;97817.09;5011351;28;20073;-73
2022/07/29 01:52:44;;;;;;;11.60;7.00;;;;;;;19.65;100.00;97812.97;5013266;28;20032;-77
2022/07/29 01:55:13;;;;;;;15.07;7.30;;;;;;;19.59;100.00;97806.06;5016648;28;20030;-72
2022/07/29 01:57:41;;;;;;;7.43;6.30;;;;;;;19.59;100.00;97794.97;4998631;28;20022;-73
2022/07/29 02:00:08;;;;;;;9.90;6.43;;;;;;;19.45;100.00;97807.69;5013631;28;20088;-73
2022/07/29 02:02:36;;;;;;;17.10;6.68;;;;;;;19.49;100.00;97798.28;5011045;28;20021;-73
2022/07/29 02:05:04;;;;;;;10.30;6.65;;;;;;;19.41;100.00;97804.00;5011201;28;20034;-73
2022/07/29 02:07:32;;;;;;;10.68;6.35;;;;;;;19.43;100.00;97799.72;5011133;28;20018;-73
2022/07/29 02:10:00;;;;;;;9.25;6.53;;;;;;;19.46;100.00;97809.28;5011085;28;20044;-73
2022/07/29 02:12:28;;;;;;;13.10;7.50;;;;;;;19.49;100.00;97814.13;5010892;28;20052;-73
2022/07/29 02:14:57;;;;;;;10.50;6.47;;;;;;;19.52;100.00;97813.41;5011039;28;20030;-72
2022/07/29 02:17:33;;;;;;;9.77;6.63;;;;;;;19.35;100.00;97805.41;5011016;28;20034;-73
2022/07/29 02:20:02;;;;;;;8.07;6.32;;;;;;;19.40;100.00;97814.28;5010625;28;20034;-74
2022/07/29 02:22:30;;;;;;;8.93;7.10;;;;;;;19.36;100.00;97809.81;5009871;28;20032;-73
2022/07/29 02:24:57;;;;;;;11.32;7.65;;;;;;;19.32;100.00;97808.88;5010834;28;20034;-73
2022/07/29 02:27:23;;;;;;;11.55;7.30;;;;;;;19.32;100.00;97808.88;5010959;28;20034;-73
2022/07/29 02:29:51;;;;;;;8.23;7.30;;;;;;;19.23;100.00;97804.31;5010691;28;20038;-74
2022/07/29 02:32:17;;;;;;;11.23;7.07;;;;;;;19.14;100.00;97792.56;5010774;28;20112;-73
2022/07/29 02:34:44;;;;;;;11.75;7.68;;;;;;;19.13;100.00;97793.75;5010548;28;20137;-73
2022/07/29 02:37:11;;;;;;;11.10;8.07;;;;;;;19.08;100.00;97793.19;5010863;28;20022;-73
2022/07/29 02:39:38;;;;;;;9.60;7.38;;;;;;;19.07;100.00;97795.16;5010608;28;20044;-73
2022/07/29 02:42:08;;;;;;;9.80;7.50;;;;;;;19.03;100.00;97797.03;5010505;28;20513;-72
2022/07/29 02:44:34;;;;;;;8.05;7.05;;;;;;;18.98;100.00;97802.81;5010581;28;20530;-73
2022/07/29 02:47:13;;;;;;;9.40;7.07;;;;;;;18.94;100.00;97792.81;5010552;28;20026;-73
2022/07/29 02:49:51;;;;;;;8.00;7.13;;;;;;;18.86;100.00;97797.31;5010528;28;20033;-73
2022/07/29 02:52:23;;;;;;;9.88;7.20;;;;;;;18.68;100.00;97801.56;5010558;28;20037;-73
2022/07/29 02:54:54;;;;;;;12.77;7.72;;;;;;;18.70;100.00;97793.72;5010607;28;20505;-73
2022/07/29 02:57:46;;;;;;;11.57;7.53;;;;;;;18.63;100.00;97793.50;5010672;28;20137;-73
2022/07/29 03:00:13;;;;;;;10.43;7.32;;;;;;;18.58;100.00;97793.75;5001565;28;20049;-74
2022/07/29 03:02:41;;;;;;;10.07;7.50;;;;;;;18.58;100.00;97790.97;5010491;28;20030;-73
2022/07/29 03:05:10;;;;;;;11.80;8.20;;;;;;;18.56;100.00;97793.28;5010392;28;20505;-73
2022/07/29 03:07:37;;;;;;;12.63;7.13;;;;;;;18.64;100.00;97801.44;5010416;28;20063;-73
2022/07/29 03:10:04;;;;;;;12.13;7.55;;;;;;;18.50;100.00;97794.69;5010294;28;20025;-75
2022/07/29 03:12:30;;;;;;;11.35;7.70;;;;;;;18.53;100.00;97794.81;5010303;28;20092;-72
2022/07/29 03:14:56;;;;;;;14.35;7.70;;;;;;;18.46;100.00;97793.75;5010519;28;20123;-72
2022/07/29 03:17:22;;;;;;;9.05;7.32;;;;;;;18.49;100.00;97798.59;5010396;28;20030;-73
2022/07/29 03:19:48;;;;;;;11.90;7.82;;;;;;;18.47;100.00;97801.72;5010342;28;20079;-72
2022/07/29 03:22:14;;;;;;;9.35;7.38;;;;;;;18.43;100.00;97800.81;5010064;28;20109;-73
2022/07/29 03:24:39;;;;;;;12.15;6.97;;;;;;;18.43;100.00;97800.81;5010206;28;20022;-74
2022/07/29 03:27:05;;;;;;;12.88;7.20;;;;;;;18.43;100.00;97791.69;5010018;28;20143;-73
2022/07/29 03:29:31;;;;;;;9.88;7.32;;;;;;;18.41;100.00;97802.31;5010361;28;20038;-73
2022/07/29 03:31:57;;;;;;;10.95;7.60;;;;;;;18.55;100.00;97800.78;5010314;28;20179;-72
2022/07/29 03:34:22;;;;;;;8.52;7.00;;;;;;;18.59;100.00;97800.91;5011102;28;20526;-72
2022/07/29 03:36:48;;;;;;;12.80;7.95;;;;;;;18.55;100.00;97805.53;5013836;28;20045;-74
2022/07/29 03:39:20;;;;;;;10.65;7.95;;;;;;;18.56;100.00;97805.19;5013373;28;20045;-73
2022/07/29 03:41:49;;;;;;;9.15;7.38;;;;;;;18.57;100.00;97800.47;5013416;28;20026;-73
2022/07/29 03:44:16;;;;;;;11.07;7.05;;;;;;;18.60;100.00;97816.38;5013541;28;20108;-73
2022/07/29 03:46:43;;;;;;;11.85;7.93;;;;;;;18.49;100.00;97812.44;4995782;28;20391;-73
2022/07/29 03:49:11;;;;;;;11.02;8.65;;;;;;;18.45;100.00;97815.09;5013363;28;20786;-73
2022/07/29 03:51:36;;;;;;;14.30;7.50;;;;;;;18.50;100.00;97822.41;5013109;28;20157;-73
2022/07/29 03:54:04;;;;;;;14.05;8.18;;;;;;;18.47;100.00;97814.75;5013311;28;20038;-73
2022/07/29 03:56:32;;;;;;;10.23;7.93;;;;;;;18.60;100.00;97813.59;5013191;28;20498;-72
2022/07/29 03:58:58;;;;;;;11.80;7.95;;;;;;;18.67;100.00;97813.78;4995788;28;20060;-73
2022/07/29 04:01:25;;;;;;;10.73;8.50;;;;;;;18.77;100.00;97810.53;5014531;28;20034;-73
2022/07/29 04:03:51;;;;;;;9.68;7.32;;;;;;;18.84;100.00;97821.03;5015224;28;20491;-73
2022/07/29 04:06:16;;;;;;;10.35;7.45;;;;;;;18.92;100.00;97818.09;5013062;28;20041;-73
2022/07/29 04:08:41;;;;;;;11.82;7.25;;;;;;;18.90;100.00;97814.88;5012990;28;20055;-73
2022/07/29 04:11:07;;;;;;;11.60;8.02;;;;;;;18.95;100.00;97819.38;5013017;28;20022;-72
2022/07/29 04:13:33;;;;;;;9.90;7.25;;;;;;;18.90;100.00;97820.41;5013014;28;20037;-73
2022/07/29 04:15:58;;;;;;;9.00;7.60;;;;;;;18.81;100.00;97813.41;5012853;28;20033;-72
2022/07/29 04:18:24;;;;;;;10.27;7.88;;;;;;;18.84;100.00;97826.56;4995243;28;20424;-73
2022/07/29 04:20:50;;;;;;;11.80;7.78;;;;;;;19.00;100.00;97833.78;4995296;28;20037;-73
2022/07/29 04:23:15;;;;;;;11.55;7.13;;;;;;;19.13;100.00;97834.53;5012722;28;20597;-73
2022/07/29 04:25:41;;;;;;;9.82;7.15;;;;;;;19.15;100.00;97837.75;5012649;28;20029;-73
2022/07/29 04:28:08;;;;;;;11.15;8.10;;;;;;;19.25;100.00;97835.28;4995017;28;20030;-73
2022/07/29 04:30:34;;;;;;;12.38;7.25;;;;;;;19.34;100.00;97837.06;5012484;28;20527;-74
2022/07/29 04:33:02;;;;;;;10.55;7.70;;;;;;;19.15;100.00;97833.00;5012697;28;20105;-73
2022/07/29 04:35:29;;;;;;;8.82;7.80;;;;;;;19.41;100.00;97832.56;5012495;28;20025;-73
2022/07/29 04:37:54;;;;;;;9.27;7.57;;;;;;;19.68;100.00;97833.66;5012681;28;20026;-73
2022/07/29 04:40:20;;;;;;;11.75;6.80;;;;;;;19.54;100.00;97830.53;5012387;28;20123;-73
2022/07/29 04:42:46;;;;;;;14.85;7.95;;;;;;;19.87;100.00;97830.16;5012242;28;20104;-73
2022/07/29 04:45:11;;;;;;;12.00;7.50;;;;;;;20.00;100.00;97821.38;4994041;28;20590;-73
2022/07/29 04:47:36;;;;;;;8.85;7.20;;;;;;;20.17;100.00;97832.09;5012096;28;20648;-73
2022/07/29 04:50:02;;;;;;;9.93;6.97;;;;;;;20.47;100.00;97820.50;5012405;28;20034;-73
2022/07/29 04:52:28;;;;;;;8.85;6.53;;;;;;;20.42;100.00;97831.91;5012256;28;20080;-73
2022/07/29 04:54:53;;;;;;;10.48;7.13;;;;;;;20.00;100.00;97818.59;4994557;28;20037;-73
2022/07/29 04:57:18;;;;;;;8.38;6.60;;;;;;;20.33;100.00;97820.97;5012273;28;20057;-73
2022/07/29 04:59:43;;;;;;;7.78;6.70;;;;;;;20.45;100.00;97832.00;4994339;28;20463;-73
2022/07/29 05:02:09;;;;;;;9.35;7.13;;;;;;;20.50;100.00;97822.56;5012039;28;20065;-73
2022/07/29 05:04:34;;;;;;;9.55;7.10;;;;;;;20.61;100.00;97812.50;4994295;28;20387;-73
2022/07/29 05:06:59;;;;;;;12.00;7.93;;;;;;;20.61;100.00;97801.38;5012003;28;20030;-72
2022/07/29 05:09:25;;;;;;;12.18;7.93;;;;;;;20.55;100.00;97795.28;5012239;28;20035;-73
2022/07/29 05:11:50;;;;;;;15.60;7.57;;;;;;;20.66;100.00;97806.63;5011990;28;20029;-73
2022/07/29 05:14:15;;;;;;;8.82;6.97;;;;;;;21.11;100.00;97803.22;5011857;28;20049;-73
2022/07/29 05:16:41;;;;;;;11.65;7.57;;;;;;;20.99;100.00;97787.44;5011664;28;20483;-73
2022/07/29 05:19:07;;;;;;;10.68;7.28;;;;;;;21.00;100.00;97777.94;5011800;28;20115;-73
2022/07/29 05:21:33;;;;;;;10.93;8.20;;;;;;;21.48;100.00;97784.84;4994072;28;20479;-73
2022/07/29 05:23:58;;;;;;;10.38;7.30;;;;;;;22.06;100.00;97809.69;5011272;28;20044;-73
2022/07/29 05:26:23;;;;;;;10.15;7.47;;;;;;;21.55;100.00;97809.22;5011678;28;20037;-73
2022/07/29 05:28:49;;;;;;;13.05;8.63;;;;;;;21.45;99.12;97804.25;5011454;28;20060;-73
2022/07/29 05:31:14;;;;;;;12.82;8.05;;;;;;;21.07;100.00;97810.66;5011250;28;20475;-73
2022/07/29 05:33:40;;;;;;;14.13;7.43;;;;;;;21.17;99.49;97810.91;5011268;28;20038;-74
2022/07/29 05:36:06;;;;;;;12.32;8.45;;;;;;;20.99;100.00;97820.81;5011237;28;20431;-74
2022/07/29 05:38:32;;;;;;;12.13;8.40;;;;;;;20.81;100.00;97830.78;5011191;28;20136;-73
2022/07/29 05:40:59;;;;;;;12.10;7.97;;;;;;;20.84;100.00;97827.25;5011411;28;20117;-73
2022/07/29 05:43:25;;;;;;;9.73;7.43;;;;;;;20.89;100.00;97838.13;5011311;28;20475;-74
2022/07/29 05:45:50;;;;;;;12.10;8.18;;;;;;;20.87;100.00;97834.88;5011166;28;20441;-74
2022/07/29 05:48:16;;;;;;;11.70;7.35;;;;;;;20.89;100.00;97837.31;5011085;28;20030;-73
2022/07/29 05:50:41;;;;;;;15.75;7.50;;;;;;;20.94;100.00;97837.81;5011164;28;20505;-73
2022/07/29 05:53:06;;;;;;;11.70;7.85;;;;;;;20.87;100.00;97834.88;5011005;28;20474;-73
2022/07/29 05:55:32;;;;;;;10.13;7.22;;;;;;;21.03;100.00;97826.47;4993319;28;20410;-73
2022/07/29 05:57:57;;;;;;;10.15;7.30;;;;;;;21.13;100.00;97829.50;4993071;28;20033;-74
2022/07/29 06:00:22;;;;;;;12.40;6.82;;;;;;;21.04;100.00;97840.00;5010860;28;20029;-73
2022/07/29 06:02:48;;;;;;;11.45;6.28;;;;;;;21.07;100.00;97839.28;5010774;28;20394;-73
2022/07/29 06:05:14;;;;;;;10.15;6.93;;;;;;;20.88;100.00;97842.06;5010767;28;20022;-73
2022/07/29 06:07:40;;;;;;;14.95;8.02;;;;;;;21.02;100.00;97844.34;5010937;28;20034;-74
2022/07/29 06:10:06;;;;;;;11.00;6.82;;;;;;;21.15;100.00;97852.19;5011033;28;20036;-73
2022/07/29 06:12:31;;;;;;;8.77;7.07;;;;;;;22.28;93.85;97840.31;5010849;28;20025;-73
2022/07/29 06:14:57;;;;;;;10.80;6.80;;;;;;;23.24;86.63;97850.03;5010907;28;20037;-73
2022/07/29 06:17:23;;;;;;;11.13;6.70;;;;;;;24.16;81.25;97857.38;5011690;28;20422;-74
2022/07/29 06:19:48;;;;;;;8.85;7.38;;;;;;;23.72;81.92;97853.75;5014458;28;20042;-74
2022/07/29 06:22:16;;;;;;;10.95;6.90;;;;;;;23.35;83.73;97862.91;5011193;28;20065;-74
2022/07/29 06:24:43;;;;;;;15.32;6.78;;;;;;;23.35;84.12;97857.31;5010697;28;20034;-73
2022/07/29 06:27:11;;;;;;;11.77;7.45;;;;;;;23.21;84.63;97861.94;5010997;28;20064;-74
2022/07/29 06:29:37;;;;;;;10.70;7.10;;;;;;;23.46;82.47;97854.69;5010767;28;20064;-74
2022/07/29 06:32:02;;;;;;;9.25;7.28;;;;;;;23.50;82.00;97857.50;5010079;28;20057;-74
2022/07/29 06:34:28;;;;;;;9.40;6.85;;;;;;;23.42;80.58;97865.81;5010467;28;20033;-74
2022/07/29 06:36:53;;;;;;;10.50;6.80;;;;;;;23.63;80.06;97858.84;5012273;28;20026;-74
2022/07/29 06:39:19;;;;;;;8.32;6.53;;;;;;;23.86;78.63;97870.66;5014712;28;20054;-75
2022/07/29 06:41:51;;;;;;;11.20;6.85;;;;;;;24.17;76.08;97870.16;5012993;28;20026;-74
2022/07/29 06:44:17;;;;;;;8.63;6.07;;;;;;;24.38;74.84;97875.13;5011707;28;20033;-74
2022/07/29 06:46:43;;;;;;;7.45;5.57;;;;;;;24.37;74.37;97879.13;5010254;28;20034;-74
2022/07/29 06:49:10;;;;;;;8.43;5.93;;;;;;;24.37;74.27;97879.13;5010483;28;20370;-72
2022/07/29 06:51:35;;;;;;;9.13;6.93;;;;;;;24.40;74.65;97883.94;5010190;28;20022;-72
2022/07/29 06:54:01;;;;;;;9.32;6.45;;;;;;;24.66;73.64;97880.09;5010298;28;20494;-72
2022/07/29 06:56:27;;;;;;;8.15;6.53;;;;;;;24.14;75.29;97875.72;5010276;28;20520;-72
2022/07/29 06:58:52;;;;;;;13.02;7.50;;;;;;;24.38;73.99;97869.53;5010235;28;20030;-72
2022/07/29 07:01:17;;;;;;;10.18;6.97;;;;;;;24.15;74.67;97878.13;5010151;28;20533;-73
2022/07/29 07:03:43;;;;;;;9.80;6.68;;;;;;;24.28;74.53;97879.44;5010766;28;20072;-73
2022/07/29 07:06:08;;;;;;;7.78;6.22;;;;;;;24.34;74.26;97875.09;5013823;28;20033;-73
2022/07/29 07:08:33;;;;;;;8.55;6.03;;;;;;;24.60;72.46;97878.88;5012624;28;20036;-72
2022/07/29 07:10:59;;;;;;;10.40;6.20;;;;;;;24.63;72.53;97875.28;4998091;28;20104;-72
2022/07/29 07:13:24;;;;;;;9.48;6.32;;;;;;;24.76;71.83;97880.19;5014023;28;20040;-72
2022/07/29 07:15:51;;;;;;;10.75;6.10;;;;;;;24.90;71.29;97882.31;5013739;28;20509;-73
2022/07/29 07:18:17;;;;;;;7.78;6.28;;;;;;;25.27;69.27;97882.88;5013993;28;20037;-72
2022/07/29 07:20:42;;;;;;;10.60;7.13;;;;;;;25.39;68.42;97873.31;5013926;28;20026;-72
2022/07/29 07:23:08;;;;;;;10.38;6.28;;;;;;;25.14;68.81;97867.63;5013916;28;20029;-72
2022/07/29 07:25:33;;;;;;;8.35;6.32;;;;;;;25.27;68.79;97866.09;5013870;28;20025;-73
2022/07/29 07:27:59;;;;;;;8.57;6.40;;;;;;;24.87;69.72;97869.09;5013682;28;20040;-73
2022/07/29 07:30:24;;;;;;;10.98;7.05;;;;;;;25.23;68.13;97873.66;5013168;28;20513;-73
2022/07/29 07:32:50;;;;;;;11.65;6.43;;;;;;;25.59;67.02;97871.03;5013305;28;20034;-73
2022/07/29 07:35:15;;;;;;;10.40;7.18;;;;;;;25.84;64.30;97869.88;5013429;28;20079;-72
2022/07/29 07:37:41;;;;;;;11.70;6.57;;;;;;;27.06;58.92;97875.06;5013630;28;20026;-73
2022/07/29 07:40:09;;;;;;;9.02;6.00;;;;;;;26.81;58.10;97868.72;4996036;28;20107;-75
2022/07/29 07:42:34;;;;;;;6.72;5.28;;;;;;;26.90;57.57;97871.91;5013591;28;20479;-73
2022/07/29 07:44:59;;;;;;;11.45;5.70;;;;;;;26.39;57.50;97875.13;5013184;28;20353;-73
2022/07/29 07:47:25;;;;;;;10.13;5.55;;;;;;;26.85;56.34;97875.09;5013152;28;20033;-73
2022/07/29 07:49:51;;;;;;;12.55;5.75;;;;;;;27.34;54.86;97879.78;5013156;28;21448;-73
2022/07/29 07:52:18;;;;;;;7.05;4.72;;;;;;;27.77;53.12;97866.31;5013173;28;20030;-74
2022/07/29 07:54:44;;;;;;;9.90;5.13;;;;;;;27.40;52.89;97870.50;5013265;28;20176;-73
2022/07/29 07:57:10;;;;;;;8.38;5.88;;;;;;;29.75;47.32;97880.09;5013221;28;20391;-73
2022/07/29 07:59:35;;;;;;;8.55;4.88;;;;;;;30.25;45.77;97874.53;5012954;28;20034;-73
2022/07/29 08:02:00;;;;;;;5.72;4.70;;;;;;;30.03;45.47;97878.13;5013153;28;20129;-72
2022/07/29 08:04:26;;;;;;;9.35;4.93;;;;;;;29.57;46.67;97882.34;5013119;28;20125;-73
2022/07/29 08:06:54;;;;;;;8.27;5.47;;;;;;;29.41;47.06;97882.19;5012908;28;20402;-73
2022/07/29 08:09:20;;;;;;;6.53;4.80;;;;;;;29.78;45.90;97884.09;5012598;28;20417;-73
2022/07/29 08:11:45;;;;;;;7.13;4.57;;;;;;;30.18;44.98;97879.50;5012522;28;20032;-73
2022/07/29 08:14:10;;;;;;;6.43;5.30;;;;;;;30.73;44.04;97885.44;5012458;28;20038;-73
2022/07/29 08:16:36;;;;;;;6.15;5.35;;;;;;;30.63;43.51;97889.25;5012330;28;20426;-73
2022/07/29 08:19:01;;;;;;;8.40;5.28;;;;;;;30.37;44.46;97883.63;5012379;28;20104;-73
2022/07/29 08:21:26;;;;;;;6.68;4.65;;;;;;;30.18;44.37;97879.50;5012223;28;20502;-73
2022/07/29 08:23:52;;;;;;;7.05;4.75;;;;;;;32.84;38.74;97878.44;5012527;28;20371;-73
2022/07/29 08:26:20;;;;;;;8.82;4.70;;;;;;;33.56;37.21;97876.00;5012296;28;20493;-73
2022/07/29 08:28:49;;;;;;;9.43;4.93;;;;;;;34.39;34.67;97882.41;5012321;28;20018;-73
2022/07/29 08:31:14;;;;;;;7.97;4.75;;;;;;;36.64;31.17;97877.31;5012572;28;20049;-73
2022/07/29 08:33:40;;;;;;;5.88;5.07;;;;;;;37.83;29.02;97881.78;5013574;28;20069;-73
2022/07/29 08:36:06;;;;;;;7.05;4.93;;;;;;;38.54;27.33;97889.81;5019926;28;20045;-74
2022/07/29 08:38:31;;;;;;;7.13;5.10;;;;;;;36.93;29.06;97871.94;5013255;28;20462;-73
2022/07/29 08:40:58;;;;;;;5.20;4.28;;;;;;;35.31;31.82;97867.03;5012205;28;20526;-73
2022/07/29 08:43:24;;;;;;;6.65;4.80;;;;;;;37.31;29.06;97873.59;5012043;28;20391;-73
2022/07/29 08:45:50;;;;;;;5.85;4.82;;;;;;;35.23;30.97;97863.69;5012252;28;20035;-73
2022/07/29 08:48:18;;;;;;;10.90;4.40;;;;;;;35.76;30.89;97864.53;5011998;28;20030;-72
2022/07/29 08:50:45;;;;;;;7.85;4.40;;;;;;;34.75;32.58;97869.84;5012000;28;20021;-73
2022/07/29 08:53:12;;;;;;;5.22;4.03;;;;;;;34.24;32.45;97864.19;5011810;28;20041;-72
2022/07/29 08:55:49;;;;;;;8.32;5.00;;;;;;;35.30;32.20;97866.28;5011506;28;20022;-72
2022/07/29 08:58:15;;;;;;;6.18;5.03;;;;;;;36.53;29.58;97865.53;5011735;28;20725;-71
2022/07/29 09:00:48;;;;;;;12.98;8.80;;;;;;;36.75;29.56;97862.56;5011686;28;20117;-72
2022/07/29 09:03:19;;;;;;;17.00;10.07;;;;;;;36.53;29.64;97870.47;5011560;28;20037;-72
2022/07/29 09:05:46;;;;;;;4.75;4.25;;;;;;;39.10;26.23;97880.41;5011678;28;20049;-73
2022/07/29 09:08:13;;;;;;;9.20;5.55;;;;;;;38.12;26.99;97877.59;5011838;28;20029;-73
2022/07/29 09:10:39;;;;;;;7.25;4.53;;;;;;;37.22;28.48;97870.72;5011418;28;20057;-73
2022/07/29 09:13:05;;;;;;;8.82;4.00;;;;;;;37.79;27.27;97858.31;5011247;28;20060;-73
2022/07/29 09:15:30;;;;;;;7.38;5.00;;;;;;;38.43;26.45;97866.69;4993836;28;20034;-72
2022/07/29 09:17:58;;;;;;;8.20;4.78;;;;;;;38.86;26.13;97857.53;5011365;28;20096;-72
2022/07/29 09:20:24;;;;;;;6.00;4.53;;;;;;;39.63;25.14;97869.78;5011482;28;20458;-73
2022/07/29 09:22:52;;;;;;;13.02;4.72;;;;;;;39.00;25.93;97865.38;5011461;28;20018;-72
2022/07/29 09:25:36;;;;;;;11.02;4.82;;;;;;;37.76;26.99;97853.53;5011462;28;20030;-73
2022/07/29 09:28:14;;;;;;;5.72;4.25;;;;;;;36.50;28.82;97858.69;5011270;28;20084;-73
2022/07/29 09:30:58;;;;;;;7.55;4.70;;;;;;;37.11;27.91;97853.28;5011167;28;20029;-72
2022/07/29 09:33:30;;;;;;;7.30;4.30;;;;;;;37.91;26.57;97848.75;5010454;28;20033;-72
2022/07/29 09:36:02;;;;;;;7.28;4.40;;;;;;;35.68;29.10;97845.34;5011068;28;20093;-72
2022/07/29 09:38:28;;;;;;;10.43;4.70;;;;;;;36.47;28.27;97838.88;5010942;28;20359;-72
2022/07/29 09:40:58;;;;;;;7.97;4.55;;;;;;;37.52;27.50;97841.22;5011128;28;20087;-73
2022/07/29 09:43:23;;;;;;;5.97;4.35;;;;;;;36.46;28.65;97834.47;5011021;28;20136;-73
2022/07/29 09:45:49;;;;;;;8.82;5.20;;;;;;;38.31;26.20;97836.22;5011015;28;20542;-74
2022/07/29 09:48:17;;;;;;;6.33;4.30;;;;;;;37.23;27.54;97836.00;5010894;28;20536;-73
2022/07/29 09:50:44;;;;;;;5.53;4.55;;;;;;;38.34;26.16;97832.41;5010817;28;20291;-73
2022/07/29 09:53:10;;;;;;;5.40;4.05;;;;;;;37.74;26.85;97827.53;5010916;28;20025;-73
2022/07/29 09:55:56;;;;;;;5.68;4.72;;;;;;;38.26;26.36;97831.94;5010673;28;20072;-72
2022/07/29 09:58:22;;;;;;;10.05;4.80;;;;;;;38.53;26.08;97831.03;5010067;28;20049;-74
2022/07/29 10:00:49;;;;;;;8.07;4.72;;;;;;;39.47;24.90;97835.13;5011067;28;20036;-73
2022/07/29 10:03:16;;;;;;;6.40;4.05;;;;;;;40.01;24.51;97822.25;5011049;28;20068;-73
2022/07/29 10:05:42;;;;;;;5.80;4.53;;;;;;;37.77;27.04;97818.00;5010822;28;20540;-72
2022/07/29 10:08:09;;;;;;;5.85;4.60;;;;;;;38.71;26.09;97824.41;5011046;28;20065;-72
2022/07/29 10:10:40;;;;;;;7.28;4.93;;;;;;;38.90;25.36;97829.53;5010769;28;20085;-73
2022/07/29 10:13:08;;;;;;;6.18;4.57;;;;;;;34.02;32.19;97811.38;5010660;28;20030;-72
2022/07/29 10:15:38;;;;;;;4.93;4.40;;;;;;;36.13;29.61;97800.00;5010726;28;20041;-73
2022/07/29 10:18:04;;;;;;;7.90;4.35;;;;;;;38.45;26.56;97809.78;5010938;28;20038;-72
2022/07/29 10:20:30;;;;;;;5.22;4.72;;;;;;;39.22;25.29;97818.47;5010624;28;20520;-73
2022/07/29 10:22:56;;;;;;;8.50;4.45;;;;;;;36.26;28.09;97805.56;5010626;28;20577;-72
2022/07/29 10:25:22;;;;;;;5.22;4.72;;;;;;;38.18;26.62;97813.56;5010564;28;20112;-72
2022/07/29 10:27:48;;;;;;;9.73;4.53;;;;;;;37.17;27.52;97805.72;5010450;28;20033;-73
2022/07/29 10:30:15;;;;;;;7.05;4.50;;;;;;;38.16;27.30;97801.81;4992641;28;20033;-73
2022/07/29 10:33:09;;;;;;;7.07;4.80;;;;;;;37.56;27.62;97793.31;5010674;28;20080;-72
2022/07/29 10:35:43;;;;;;;6.05;4.35;;;;;;;37.14;27.82;97806.66;5010231;28;20072;-73
2022/07/29 10:38:39;;;;;;;7.75;4.65;;;;;;;37.01;27.66;97799.06;5010542;28;20061;-73
2022/07/29 10:41:26;;;;;;;6.18;4.90;;;;;;;37.68;26.74;97800.88;5010132;28;20436;-75
2022/07/29 10:44:06;;;;;;;5.22;4.55;;;;;;;35.23;29.74;97795.38;5011233;28;20308;-73
2022/07/29 10:46:36;;;;;;;5.47;4.43;;;;;;;34.87;30.60;97780.84;5014127;28;20026;-73
2022/07/29 10:49:12;;;;;;;9.05;4.75;;;;;;;33.54;32.18;97775.56;5014404;28;20048;-72
2022/07/29 10:52:09;;;;;;;5.63;4.68;;;;;;;32.45;34.90;97766.09;5018336;28;20037;-73
2022/07/29 10:54:44;;;;;;;5.32;4.50;;;;;;;32.86;34.74;97765.41;5013868;28;20061;-73
2022/07/29 10:57:21;;;;;;;6.97;5.05;;;;;;;32.70;34.49;97771.13;5014001;28;20048;-72
2022/07/29 11:00:08;;;;;;;5.82;5.20;;;;;;;32.43;34.73;97767.75;5014128;28;20061;-72
2022/07/29 11:02:34;;;;;;;5.18;4.35;;;;;;;32.19;34.94;97764.34;5013405;28;20340;-73
2022/07/29 11:05:10;;;;;;;5.78;4.47;;;;;;;31.86;35.73;97755.03;4996035;28;20037;-72
2022/07/29 11:07:37;;;;;;;6.32;4.70;;;;;;;31.57;36.53;97748.47;4996100;28;20021;-74
2022/07/29 11:10:15;;;;;;;7.00;4.95;;;;;;;31.44;36.59;97745.50;5014127;28;20036;-72
2022/07/29 11:12:40;;;;;;;6.53;5.10;;;;;;;31.37;36.42;97744.88;5014197;28;20064;-74
2022/07/29 11:15:08;;;;;;;5.70;5.10;;;;;;;31.22;36.63;97742.38;4996208;28;20070;-73
2022/07/29 11:17:52;;;;;;;5.75;5.15;;;;;;;31.63;36.41;97736.19;5015264;28;20033;-73
2022/07/29 11:20:44;;;;;;;5.45;4.40;;;;;;;31.95;35.67;97735.41;5019104;28;20030;-73
2022/07/29 11:23:35;;;;;;;6.25;5.10;;;;;;;32.19;35.38;97728.34;5019217;28;20033;-73
2022/07/29 11:26:13;;;;;;;5.63;4.75;;;;;;;32.08;35.38;97729.88;5014269;28;20025;-72
2022/07/29 11:28:51;;;;;;;7.18;4.72;;;;;;;31.04;37.30;97721.38;5014596;28;20033;-73
2022/07/29 11:31:30;;;;;;;5.60;5.05;;;;;;;31.30;36.83;97709.06;5014149;28;20395;-73
2022/07/29 11:33:56;;;;;;;5.63;4.63;;;;;;;30.95;37.32;97699.34;5014511;28;20026;-73